createdAt,value
2022-09-28T00:01:25.993Z,79.24
2022-09-28T00:03:57.649Z,80.75
2022-09-28T00:06:28.539Z,78.16
2022-09-28T00:08:58.926Z,79.76
2022-09-28T00:11:29.261Z,80.11
2022-09-28T00:14:00.259Z,80.29
2022-09-28T00:16:34.118Z,79.27
2022-09-28T00:19:04.027Z,81.86
2022-09-28T00:21:34.776Z,80.31
2022-09-28T00:24:16.249Z,78.70
2022-09-28T00:26:48.556Z,82.22
2022-09-28T00:29:21.287Z,80.87
2022-09-28T00:31:50.558Z,81.02
2022-09-28T00:34:19.220Z,78.64
2022-09-28T00:36:48.302Z,80.33
2022-09-28T00:39:18.715Z,79.72
2022-09-28T00:41:47.795Z,78.22
2022-09-28T00:44:44.424Z,79.29
2022-09-28T00:47:41.144Z,80.50
2022-09-28T00:50:15.904Z,82.17
2022-09-28T00:52:50.237Z,79.80
2022-09-28T00:55:23.976Z,79.30
2022-09-28T00:57:56.618Z,79.99
2022-09-28T01:00:25.435Z,79.77
2022-09-28T01:02:53.828Z,81.74
2022-09-28T01:05:23.393Z,81.51
2022-09-28T01:07:52.219Z,80.65
2022-09-28T01:10:22.557Z,81.38
2022-09-28T01:12:51.067Z,81.40
2022-09-28T01:15:21.980Z,79.93
2022-09-28T01:18:02.780Z,81.26
2022-09-28T01:20:56.575Z,82.22
2022-09-28T01:23:51.327Z,79.91
2022-09-28T01:26:45.028Z,81.74
2022-09-28T01:29:20.363Z,81.67
2022-09-28T01:31:54.147Z,82.30
2022-09-28T01:34:28.727Z,80.63
2022-09-28T01:36:59.476Z,79.79
2022-09-28T01:39:32.688Z,80.90
2022-09-28T01:42:07.008Z,82.33
2022-09-28T01:44:41.907Z,80.28
2022-09-28T01:47:14.315Z,79.16
2022-09-28T01:49:47.956Z,80.18
2022-09-28T01:52:21.361Z,80.72
2022-09-28T01:54:57.268Z,79.38
2022-09-28T01:57:35.357Z,80.08
2022-09-28T02:00:08.483Z,79.39
2022-09-28T02:02:49.608Z,79.30
2022-09-28T02:05:28.663Z,79.23
2022-09-28T02:08:01.068Z,79.34
2022-09-28T02:10:35.023Z,79.89
2022-09-28T02:13:10.897Z,81.04
2022-09-28T02:15:47.637Z,81.96
2022-09-28T02:18:16.468Z,80.56
2022-09-28T02:20:53.455Z,79.91
2022-09-28T02:23:24.416Z,79.15
2022-09-28T02:26:02.022Z,79.76
2022-09-28T02:28:32.147Z,79.18
2022-09-28T02:31:00.711Z,79.94
2022-09-28T02:33:34.825Z,79.13
2022-09-28T02:36:04.798Z,80.73
2022-09-28T02:38:38.602Z,80.70
2022-09-28T02:41:12.656Z,81.05
2022-09-28T02:43:59.076Z,80.14
2022-09-28T02:46:33.484Z,81.03
2022-09-28T02:49:24.465Z,81.99
2022-09-28T02:52:10.750Z,81.39
2022-09-28T02:55:19.361Z,81.05
2022-09-28T02:58:01.962Z,81.39
2022-09-28T03:00:34.154Z,81.05
2022-09-28T03:03:11.729Z,81.16
2022-09-28T03:05:48.421Z,81.85
2022-09-28T03:08:25.276Z,82.01
2022-09-28T03:10:59.388Z,80.39
2022-09-28T03:13:29.771Z,81.76
2022-09-28T03:16:11.516Z,80.90
2022-09-28T03:18:41.345Z,80.56
2022-09-28T03:21:10.592Z,79.40
2022-09-28T03:23:40.642Z,80.06
2022-09-28T03:26:09.777Z,80.63
2022-09-28T03:28:38.950Z,79.46
2022-09-28T03:31:10.949Z,81.61
2022-09-28T03:33:40.046Z,79.90
2022-09-28T03:36:10.434Z,80.28
2022-09-28T03:38:40.316Z,80.16
2022-09-28T03:41:09.586Z,80.61
2022-09-28T03:43:41.741Z,80.88
2022-09-28T03:46:12.040Z,81.54
2022-09-28T03:48:45.899Z,80.79
2022-09-28T03:51:16.832Z,81.23
2022-09-28T03:53:45.639Z,81.96
2022-09-28T03:56:17.520Z,81.03
2022-09-28T03:58:46.049Z,80.38
2022-09-28T04:01:17.806Z,81.13
2022-09-28T04:03:48.659Z,79.41
2022-09-28T04:06:17.273Z,79.13
2022-09-28T04:08:45.727Z,79.58
2022-09-28T04:11:15.017Z,80.37
2022-09-28T04:13:43.481Z,80.33
2022-09-28T04:16:17.967Z,79.56
2022-09-28T04:18:55.331Z,79.79
2022-09-28T04:21:47.187Z,79.50
2022-09-28T04:24:16.650Z,80.01
2022-09-28T04:26:45.144Z,80.85
2022-09-28T04:29:17.185Z,80.20
2022-09-28T04:31:58.512Z,79.94
2022-09-28T04:34:43.153Z,80.07
2022-09-28T04:37:13.012Z,80.20
2022-09-28T04:39:46.146Z,81.26
2022-09-28T04:42:18.873Z,79.71
2022-09-28T04:44:47.815Z,80.19
2022-09-28T04:47:17.708Z,80.25
2022-09-28T04:50:10.668Z,79.82
2022-09-28T04:52:59.104Z,80.83
2022-09-28T04:55:28.938Z,79.18
2022-09-28T04:57:57.399Z,80.32
2022-09-28T05:00:25.755Z,80.86
2022-09-28T05:03:14.164Z,79.67
2022-09-28T05:06:01.650Z,79.51
2022-09-28T05:08:46.936Z,78.87
2022-09-28T05:11:16.358Z,79.64
2022-09-28T05:13:45.453Z,79.06
2022-09-28T05:16:17.030Z,79.01
2022-09-28T05:19:07.549Z,77.38
2022-09-28T05:21:35.996Z,78.24
2022-09-28T05:24:07.752Z,77.67
2022-09-28T05:26:38.950Z,78.00
2022-09-28T05:29:11.942Z,78.99
2022-09-28T05:31:43.220Z,77.26
2022-09-28T05:34:21.896Z,78.09
2022-09-28T05:36:50.323Z,78.19
2022-09-28T05:39:19.691Z,77.30
2022-09-28T05:41:48.061Z,77.33
2022-09-28T05:44:16.583Z,77.29
2022-09-28T05:46:45.101Z,79.25
2022-09-28T05:49:14.274Z,78.11
2022-09-28T05:51:44.097Z,79.29
2022-09-28T05:54:12.798Z,79.02
2022-09-28T05:56:45.260Z,78.15
2022-09-28T05:59:13.817Z,76.76
2022-09-28T06:01:43.140Z,78.01
2022-09-28T06:04:12.902Z,77.88
2022-09-28T06:06:44.856Z,78.01
2022-09-28T06:09:13.426Z,77.68
2022-09-28T06:11:41.944Z,77.32
2022-09-28T06:14:19.788Z,78.56
2022-09-28T06:16:49.258Z,76.68
2022-09-28T06:19:20.700Z,77.40
2022-09-28T06:22:18.785Z,77.48
2022-09-28T06:24:55.756Z,77.23
2022-09-28T06:27:26.027Z,76.22
2022-09-28T06:29:54.535Z,77.94
2022-09-28T06:32:22.945Z,78.72
2022-09-28T06:34:56.199Z,78.05
2022-09-28T06:37:29.020Z,78.41
2022-09-28T06:39:58.581Z,78.23
2022-09-28T06:42:27.127Z,78.30
2022-09-28T06:45:14.029Z,77.32
2022-09-28T06:48:03.204Z,78.99
2022-09-28T06:50:42.577Z,77.96
2022-09-28T06:53:32.697Z,78.27
2022-09-28T06:56:32.857Z,77.91
2022-09-28T06:59:02.229Z,77.71
2022-09-28T07:01:30.868Z,77.77
2022-09-28T07:04:07.793Z,76.86
2022-09-28T07:07:06.261Z,77.44
2022-09-28T07:09:56.691Z,77.46
2022-09-28T07:12:45.485Z,77.05
2022-09-28T07:15:33.435Z,77.62
2022-09-28T07:18:05.424Z,77.37
2022-09-28T07:20:47.179Z,76.58
2022-09-28T07:23:21.107Z,75.59
2022-09-28T07:26:09.745Z,75.68
2022-09-28T07:28:56.877Z,76.54
2022-09-28T07:31:35.315Z,76.13
2022-09-28T07:34:23.708Z,74.57
2022-09-28T07:37:09.010Z,74.01
2022-09-28T07:39:57.503Z,74.83
2022-09-28T07:42:30.143Z,74.99
2022-09-28T07:44:59.608Z,75.01
2022-09-28T07:47:33.841Z,73.91
2022-09-28T07:50:33.438Z,73.67
2022-09-28T07:53:10.684Z,73.14
2022-09-28T07:55:52.861Z,73.49
2022-09-28T07:58:39.830Z,74.11
2022-09-28T08:01:46.229Z,75.03
2022-09-28T08:04:16.004Z,73.65
2022-09-28T08:06:48.405Z,73.84
2022-09-28T08:09:17.217Z,74.48
2022-09-28T08:12:05.562Z,74.31
2022-09-28T08:14:49.383Z,74.23
2022-09-28T08:17:32.929Z,74.84
2022-09-28T08:20:23.552Z,74.62
2022-09-28T08:22:52.654Z,74.44
2022-09-28T08:25:21.259Z,74.52
2022-09-28T08:27:50.058Z,74.74
2022-09-28T08:30:22.581Z,73.03
2022-09-28T08:33:05.223Z,73.25
2022-09-28T08:35:46.945Z,73.66
2022-09-28T08:38:44.559Z,74.11
2022-09-28T08:41:42.485Z,73.75
2022-09-28T08:48:04.492Z,73.92
2022-09-28T08:50:47.169Z,74.19
2022-09-28T08:53:52.404Z,72.53
2022-09-28T08:56:32.770Z,73.58
2022-09-28T08:59:05.691Z,73.63
2022-09-28T09:01:40.069Z,75.14
2022-09-28T09:04:14.851Z,74.68
2022-09-28T09:07:22.683Z,74.90
2022-09-28T09:10:17.133Z,73.92
2022-09-28T09:12:59.983Z,73.76
2022-09-28T09:15:40.704Z,73.25
2022-09-28T09:18:37.559Z,73.56
2022-09-28T09:21:42.436Z,74.79
2022-09-28T09:24:33.267Z,74.25
2022-09-28T09:27:07.703Z,72.00
2022-09-28T09:29:54.621Z,72.28
2022-09-28T09:32:42.415Z,74.53
2022-09-28T09:35:31.983Z,75.26
2022-09-28T09:38:37.212Z,74.44
2022-09-28T09:41:39.253Z,74.11
2022-09-28T09:44:52.535Z,73.20
2022-09-28T09:47:43.248Z,72.08
2022-09-28T09:50:39.512Z,72.21
2022-09-28T09:53:20.994Z,73.48
2022-09-28T09:55:57.471Z,73.10
2022-09-28T09:58:46.423Z,74.01
2022-09-28T10:01:29.027Z,73.23
2022-09-28T10:04:28.884Z,72.75
2022-09-28T10:07:06.352Z,71.83
2022-09-28T10:09:44.222Z,71.88
2022-09-28T10:12:28.196Z,73.11
2022-09-28T10:14:57.513Z,73.50
2022-09-28T10:17:29.261Z,71.21
2022-09-28T10:20:17.565Z,71.79
2022-09-28T10:23:03.342Z,71.22
2022-09-28T10:25:35.009Z,71.36
2022-09-28T10:28:06.913Z,71.58
2022-09-28T10:30:44.885Z,73.10
2022-09-28T10:33:30.892Z,75.63
2022-09-28T10:36:00.901Z,73.40
2022-09-28T10:38:31.067Z,72.31
2022-09-28T10:41:13.750Z,72.63
2022-09-28T10:44:07.521Z,72.53
2022-09-28T10:47:01.023Z,71.72
2022-09-28T10:49:46.798Z,72.38
2022-09-28T10:52:33.452Z,73.53
2022-09-28T10:55:02.254Z,72.36
2022-09-28T10:57:36.773Z,72.64
2022-09-28T11:00:32.276Z,73.70
2022-09-28T11:03:24.379Z,74.52
2022-09-28T11:06:01.740Z,74.77
2022-09-28T11:08:34.512Z,73.24
2022-09-28T11:11:11.670Z,76.17
2022-09-28T11:13:46.515Z,74.77
2022-09-28T11:16:24.519Z,73.53
2022-09-28T11:18:53.255Z,74.17
2022-09-28T11:21:26.219Z,73.53
2022-09-28T11:24:06.578Z,73.91
2022-09-28T11:26:42.131Z,73.35
2022-09-28T11:29:24.029Z,73.11
2022-09-28T11:32:15.698Z,73.79
2022-09-28T11:35:04.783Z,74.23
2022-09-28T11:37:59.098Z,73.88
2022-09-28T11:41:03.876Z,74.18
2022-09-28T11:43:53.774Z,74.56
2022-09-28T11:46:32.901Z,74.57
2022-09-28T11:49:23.679Z,75.53
2022-09-28T11:51:55.743Z,76.28
2022-09-28T11:54:33.004Z,75.01
2022-09-28T11:57:06.094Z,75.76
2022-09-28T11:59:41.097Z,74.15
2022-09-28T12:02:17.885Z,75.84
2022-09-28T12:05:05.751Z,73.74
2022-09-28T12:07:38.739Z,74.15
2022-09-28T12:10:21.771Z,76.10
2022-09-28T12:12:55.629Z,75.23
2022-09-28T12:15:38.235Z,75.99
2022-09-28T12:18:24.570Z,75.07
2022-09-28T12:21:05.073Z,75.67
2022-09-28T12:23:37.272Z,76.13
2022-09-28T12:26:12.988Z,77.66
2022-09-28T12:28:46.616Z,76.70
2022-09-28T12:31:20.532Z,76.82
2022-09-28T12:33:52.574Z,74.72
2022-09-28T12:36:34.606Z,75.05
2022-09-28T12:39:35.701Z,75.34
2022-09-28T12:42:24.356Z,75.95
2022-09-28T12:45:18.952Z,77.32
2022-09-28T12:48:17.327Z,76.59
2022-09-28T12:50:57.150Z,76.04
2022-09-28T12:53:56.027Z,75.58
2022-09-28T12:56:34.609Z,74.79
2022-09-28T12:59:16.414Z,75.24
2022-09-28T13:02:00.558Z,77.06
2022-09-28T13:04:45.690Z,76.54
2022-09-28T13:07:21.826Z,76.22
2022-09-28T13:10:04.444Z,75.91
2022-09-28T13:12:47.357Z,77.72
2022-09-28T13:15:39.559Z,76.13
2022-09-28T13:18:20.522Z,76.13
2022-09-28T13:21:06.723Z,75.77
2022-09-28T13:23:39.369Z,77.51
2022-09-28T13:26:18.202Z,77.06
2022-09-28T13:28:48.179Z,75.62
2022-09-28T13:31:21.851Z,75.04
2022-09-28T13:33:51.487Z,75.51
2022-09-28T13:36:41.683Z,75.17
2022-09-28T13:39:38.731Z,75.90
2022-09-28T13:42:11.364Z,75.59
2022-09-28T13:45:09.603Z,76.24
2022-09-28T13:47:51.815Z,76.21
2022-09-28T13:50:34.531Z,76.60
2022-09-28T13:53:13.629Z,75.45
2022-09-28T13:55:58.079Z,75.50
2022-09-28T13:58:32.002Z,75.73
2022-09-28T14:01:06.853Z,75.03
2022-09-28T14:03:54.355Z,77.81
2022-09-28T14:06:27.913Z,79.22
2022-09-28T14:09:24.448Z,77.81
2022-09-28T14:11:58.079Z,77.76
2022-09-28T14:14:48.729Z,77.53
2022-09-28T14:17:56.028Z,77.55
2022-09-28T14:20:31.538Z,77.47
2022-09-28T14:23:18.614Z,76.94
2022-09-28T14:26:00.339Z,76.83
2022-09-28T14:28:45.437Z,77.84
2022-09-28T14:31:27.644Z,77.94
2022-09-28T14:37:46.031Z,75.98
2022-09-28T14:40:39.699Z,76.69
2022-09-28T14:43:32.011Z,76.99
2022-09-28T14:46:40.011Z,78.76
2022-09-28T14:49:43.001Z,79.63
2022-09-28T14:52:19.260Z,78.58
2022-09-28T14:54:54.921Z,78.21
2022-09-28T14:57:32.904Z,77.87
2022-09-28T15:00:09.119Z,78.25
2022-09-28T15:02:45.861Z,78.02
2022-09-28T15:05:24.107Z,79.28
2022-09-28T15:07:54.491Z,79.54
2022-09-28T15:10:31.535Z,78.31
2022-09-28T15:13:02.566Z,78.66
2022-09-28T15:15:37.112Z,78.67
2022-09-28T15:18:28.996Z,77.65
2022-09-28T15:20:57.542Z,77.65
2022-09-28T15:23:29.330Z,76.88
2022-09-28T15:25:57.844Z,75.38
2022-09-28T15:28:26.283Z,75.62
2022-09-28T15:31:01.084Z,75.88
2022-09-28T15:33:50.404Z,76.00
2022-09-28T15:36:24.628Z,75.99
2022-09-28T15:39:01.512Z,75.68
2022-09-28T15:41:32.911Z,75.06
2022-09-28T15:44:29.193Z,75.19
2022-09-28T15:47:14.015Z,75.65
2022-09-28T15:49:50.769Z,75.74
2022-09-28T15:52:29.942Z,75.57
2022-09-28T15:55:01.064Z,74.41
2022-09-28T15:57:37.568Z,73.91
2022-09-28T16:00:08.762Z,73.53
2022-09-28T16:02:40.576Z,73.58
2022-09-28T16:05:46.783Z,74.59
2022-09-28T16:08:25.094Z,74.95
2022-09-28T16:11:06.017Z,76.58
2022-09-28T16:13:35.325Z,77.19
2022-09-28T16:16:17.280Z,77.45
2022-09-28T16:18:50.266Z,76.65
2022-09-28T16:21:37.670Z,75.82
2022-09-28T16:24:06.541Z,74.75
2022-09-28T16:26:37.399Z,73.37
2022-09-28T16:29:26.504Z,74.18
2022-09-28T16:31:57.526Z,73.37
2022-09-28T16:34:31.280Z,74.83
2022-09-28T16:37:01.978Z,72.97
2022-09-28T16:39:32.805Z,74.03
2022-09-28T16:42:03.748Z,75.36
2022-09-28T16:44:36.011Z,77.05
2022-09-28T16:47:04.622Z,76.20
2022-09-28T16:49:44.953Z,77.81
2022-09-28T16:52:56.758Z,77.50
2022-09-28T16:55:40.188Z,75.64
2022-09-28T16:58:09.985Z,75.48
2022-09-28T17:00:43.877Z,76.02
2022-09-28T17:03:18.436Z,74.72
2022-09-28T17:05:50.914Z,74.17
2022-09-28T17:08:25.162Z,73.99
2022-09-28T17:13:48.893Z,73.83
2022-09-28T17:16:20.988Z,73.69
2022-09-28T17:18:54.752Z,73.39
2022-09-28T17:21:24.097Z,73.04
2022-09-28T17:23:54.149Z,73.09
2022-09-28T17:26:30.778Z,74.43
2022-09-28T17:29:00.411Z,74.92
2022-09-28T17:31:30.858Z,74.33
2022-09-28T17:34:01.143Z,74.28
2022-09-28T17:36:30.587Z,74.82
2022-09-28T17:39:08.696Z,74.55
2022-09-28T17:41:37.800Z,74.85
2022-09-28T17:44:06.727Z,74.66
2022-09-28T17:46:39.849Z,75.37
2022-09-28T17:49:11.880Z,75.24
2022-09-28T17:51:41.005Z,75.06
2022-09-28T17:54:20.897Z,73.68
2022-09-28T17:56:49.988Z,73.23
2022-09-28T17:59:19.706Z,72.85
2022-09-28T18:01:48.593Z,74.42
2022-09-28T18:04:39.727Z,74.23
2022-09-28T18:07:07.697Z,74.30
2022-09-28T18:09:41.286Z,75.16
2022-09-28T18:12:10.457Z,75.19
2022-09-28T18:14:40.058Z,74.63
2022-09-28T18:17:09.104Z,74.89
2022-09-28T18:19:37.353Z,74.88
2022-09-28T18:22:11.134Z,75.65
2022-09-28T18:24:43.745Z,76.30
2022-09-28T18:27:13.116Z,76.33
2022-09-28T18:29:41.672Z,75.84
2022-09-28T18:32:10.675Z,75.74
2022-09-28T18:34:39.397Z,74.54
2022-09-28T18:37:11.150Z,74.87
2022-09-28T18:39:48.624Z,75.68
2022-09-28T18:42:17.279Z,75.94
2022-09-28T18:44:47.862Z,76.13
2022-09-28T18:47:16.495Z,75.39
2022-09-28T18:49:46.805Z,74.66
2022-09-28T18:52:15.903Z,72.97
2022-09-28T18:54:46.789Z,75.10
2022-09-28T18:57:15.444Z,73.95
2022-09-28T18:59:51.169Z,73.66
2022-09-28T19:02:20.154Z,73.28
2022-09-28T19:04:48.579Z,71.82
2022-09-28T19:07:17.053Z,73.19
2022-09-28T19:09:46.967Z,72.52
2022-09-28T19:12:16.166Z,73.74
2022-09-28T19:14:44.670Z,73.91
2022-09-28T19:17:15.660Z,74.55
2022-09-28T19:19:47.025Z,73.63
2022-09-28T19:22:18.280Z,73.18
2022-09-28T19:24:48.436Z,73.50
2022-09-28T19:27:17.010Z,71.41
2022-09-28T19:29:50.692Z,70.68
2022-09-28T19:32:19.242Z,71.69
2022-09-28T19:34:51.251Z,68.68
2022-09-28T19:37:19.746Z,70.86
2022-09-28T19:39:52.574Z,69.86
2022-09-28T19:42:21.124Z,68.59
2022-09-28T19:44:52.736Z,68.97
2022-09-28T19:47:21.837Z,69.71
2022-09-28T19:49:51.338Z,69.34
2022-09-28T19:52:19.941Z,70.00
2022-09-28T19:54:57.090Z,70.82
2022-09-28T19:57:28.448Z,71.42
2022-09-28T20:00:02.763Z,70.94
2022-09-28T20:02:35.225Z,71.24
2022-09-28T20:05:03.503Z,72.36
2022-09-28T20:07:33.481Z,73.17
2022-09-28T20:10:02.037Z,73.66
2022-09-28T20:12:33.140Z,73.64
2022-09-28T20:15:01.652Z,73.96
2022-09-28T20:17:33.644Z,73.76
2022-09-28T20:20:02.645Z,72.84
2022-09-28T20:22:38.385Z,73.20
2022-09-28T20:25:12.678Z,73.12
2022-09-28T20:27:45.849Z,73.34
2022-09-28T20:30:15.448Z,73.50
2022-09-28T20:32:49.312Z,72.61
2022-09-28T20:35:30.292Z,71.51
2022-09-28T20:38:08.154Z,71.42
2022-09-28T20:40:36.913Z,70.93
2022-09-28T20:43:08.157Z,71.39
2022-09-28T20:45:38.193Z,71.23
2022-09-28T20:48:09.774Z,71.31
2022-09-28T20:50:38.182Z,69.87
2022-09-28T20:53:06.689Z,69.14
2022-09-28T20:55:38.068Z,70.52
2022-09-28T20:58:07.897Z,69.26
2022-09-28T21:00:36.589Z,71.01
2022-09-28T21:03:05.153Z,71.95
2022-09-28T21:05:36.584Z,70.95
2022-09-28T21:08:05.018Z,70.21
2022-09-28T21:10:33.423Z,69.18
2022-09-28T21:13:01.779Z,69.59
2022-09-28T21:15:31.598Z,70.87
2022-09-28T21:18:00.128Z,71.68
2022-09-28T21:20:28.535Z,71.69
2022-09-28T21:22:56.890Z,72.83
2022-09-28T21:25:25.388Z,72.35
2022-09-28T21:27:53.783Z,72.27
2022-09-28T21:30:22.248Z,72.12
2022-09-28T21:32:52.890Z,70.94
2022-09-28T21:35:21.321Z,71.41
2022-09-28T21:37:49.814Z,71.48
2022-09-28T21:40:18.178Z,70.44
2022-09-28T21:42:46.535Z,70.94
2022-09-28T21:45:15.158Z,72.18
2022-09-28T21:47:47.605Z,71.22
2022-09-28T21:50:17.863Z,71.99
2022-09-28T21:52:46.312Z,72.14
2022-09-28T21:55:14.761Z,72.65
2022-09-28T21:57:43.096Z,72.25
2022-09-28T22:00:14.341Z,72.56
2022-09-28T22:02:42.993Z,71.90
2022-09-28T22:05:13.306Z,71.69
2022-09-28T22:07:43.649Z,71.75
2022-09-28T22:10:14.300Z,70.03
2022-09-28T22:12:43.209Z,68.91
2022-09-28T22:15:12.177Z,68.49
2022-09-28T22:17:40.260Z,68.18
2022-09-28T22:20:09.080Z,68.73
2022-09-28T22:22:37.464Z,70.07
2022-09-28T22:25:08.019Z,69.77
2022-09-28T22:27:36.452Z,69.19
2022-09-28T22:30:05.317Z,70.79
2022-09-28T22:32:33.405Z,68.69
2022-09-28T22:35:01.810Z,69.28
2022-09-28T22:37:33.231Z,70.48
2022-09-28T22:40:01.993Z,71.16
2022-09-28T22:42:32.843Z,69.67
2022-09-28T22:45:01.247Z,70.02
2022-09-28T22:47:30.035Z,70.00
2022-09-28T22:49:58.461Z,68.98
2022-09-28T22:52:26.869Z,68.62
2022-09-28T22:54:55.255Z,69.41
2022-09-28T22:57:23.647Z,68.33
2022-09-28T22:59:53.429Z,69.70
2022-09-28T23:02:21.819Z,71.22
2022-09-28T23:04:50.172Z,70.91
2022-09-28T23:07:21.639Z,69.27
2022-09-28T23:09:50.065Z,68.40
2022-09-28T23:12:18.631Z,68.57
2022-09-28T23:14:49.295Z,69.87
2022-09-28T23:17:19.379Z,70.79
2022-09-28T23:19:47.852Z,69.35
2022-09-28T23:22:16.329Z,69.45
2022-09-28T23:24:47.287Z,69.02
2022-09-28T23:27:15.842Z,68.27
2022-09-28T23:29:48.958Z,70.25
2022-09-28T23:32:18.772Z,70.22
2022-09-28T23:34:47.155Z,70.20
2022-09-28T23:37:17.895Z,69.17
2022-09-28T23:39:48.132Z,69.35
2022-09-28T23:42:19.148Z,69.83
2022-09-28T23:44:47.645Z,70.31
2022-09-28T23:47:16.216Z,69.78
2022-09-28T23:49:46.094Z,70.64
2022-09-28T23:52:17.073Z,72.22
2022-09-28T23:54:45.492Z,72.47
2022-09-28T23:57:15.034Z,71.78
2022-09-28T23:59:43.516Z,70.77
